sensor_id;sensor_type;location;lat;lon;timestamp;temperature;humidity
8979;DHT22;4524;51.364;5.448;2023-04-01T00:01:04;10.90;1.00
8979;DHT22;4524;51.364;5.448;2023-04-01T00:03:35;10.90;9.20
8979;DHT22;4524;51.364;5.448;2023-04-01T00:06:04;10.90;1.00
8979;DHT22;4524;51.364;5.448;2023-04-01T00:08:32;11.00;1.00
8979;DHT22;4524;51.364;5.448;2023-04-01T00:11:00;11.00;1.00
8979;DHT22;4524;51.364;5.448;2023-04-01T00:13:28;10.90;1.00
8979;DHT22;4524;51.364;5.448;2023-04-01T00:15:56;10.90;4.70
8979;DHT22;4524;51.364;5.448;2023-04-01T00:18:26;10.80;1.00
8979;DHT22;4524;51.364;5.448;2023-04-01T00:20:55;10.90;1.00
8979;DHT22;4524;51.364;5.448;2023-04-01T00:23:23;11.00;1.00
8979;DHT22;4524;51.364;5.448;2023-04-01T00:25:51;10.90;1.00
8979;DHT22;4524;51.364;5.448;2023-04-01T00:28:20;10.90;16.70
8979;DHT22;4524;51.364;5.448;2023-04-01T00:30:48;10.90;5.80
8979;DHT22;4524;51.364;5.448;2023-04-01T00:33:16;10.90;27.20
8979;DHT22;4524;51.364;5.448;2023-04-01T00:35:44;10.80;39.50
8979;DHT22;4524;51.364;5.448;2023-04-01T00:38:13;10.90;28.40
8979;DHT22;4524;51.364;5.448;2023-04-01T00:40:45;10.90;9.80
8979;DHT22;4524;51.364;5.448;2023-04-01T00:43:16;11.00;2.20
8979;DHT22;4524;51.364;5.448;2023-04-01T00:45:48;11.00;24.70
8979;DHT22;4524;51.364;5.448;2023-04-01T00:48:18;10.90;33.90
8979;DHT22;4524;51.364;5.448;2023-04-01T00:50:50;10.90;35.80
8979;DHT22;4524;51.364;5.448;2023-04-01T00:53:21;10.90;39.00
8979;DHT22;4524;51.364;5.448;2023-04-01T00:55:55;10.90;50.60
8979;DHT22;4524;51.364;5.448;2023-04-01T00:58:26;10.80;77.40
8979;DHT22;4524;51.364;5.448;2023-04-01T01:00:55;10.80;87.20
8979;DHT22;4524;51.364;5.448;2023-04-01T01:03:24;10.80;77.70
8979;DHT22;4524;51.364;5.448;2023-04-01T01:06:08;10.80;84.30
8979;DHT22;4524;51.364;5.448;2023-04-01T01:08:55;10.80;98.50
8979;DHT22;4524;51.364;5.448;2023-04-01T01:11:31;10.90;99.90
8979;DHT22;4524;51.364;5.448;2023-04-01T01:14:25;10.90;78.10
8979;DHT22;4524;51.364;5.448;2023-04-01T01:16:59;10.90;90.60
8979;DHT22;4524;51.364;5.448;2023-04-01T01:19:51;10.90;65.00
8979;DHT22;4524;51.364;5.448;2023-04-01T01:22:38;10.90;84.20
8979;DHT22;4524;51.364;5.448;2023-04-01T01:25:18;10.90;70.20
8979;DHT22;4524;51.364;5.448;2023-04-01T01:27:56;10.90;59.50
8979;DHT22;4524;51.364;5.448;2023-04-01T01:30:37;10.90;76.40
8979;DHT22;4524;51.364;5.448;2023-04-01T01:33:25;10.90;99.90
8979;DHT22;4524;51.364;5.448;2023-04-01T01:36:04;10.90;99.90
8979;DHT22;4524;51.364;5.448;2023-04-01T01:38:34;10.90;99.90
8979;DHT22;4524;51.364;5.448;2023-04-01T01:41:05;10.90;93.10
8979;DHT22;4524;51.364;5.448;2023-04-01T01:43:37;10.90;98.10
8979;DHT22;4524;51.364;5.448;2023-04-01T01:46:26;10.90;84.40
8979;DHT22;4524;51.364;5.448;2023-04-01T01:48:56;10.90;99.90
8979;DHT22;4524;51.364;5.448;2023-04-01T01:51:27;10.90;91.80
8979;DHT22;4524;51.364;5.448;2023-04-01T01:53:55;10.90;92.70
8979;DHT22;4524;51.364;5.448;2023-04-01T01:56:26;10.90;92.20
8979;DHT22;4524;51.364;5.448;2023-04-01T01:58:58;10.90;96.50
8979;DHT22;4524;51.364;5.448;2023-04-01T02:01:32;10.90;99.90
8979;DHT22;4524;51.364;5.448;2023-04-01T02:04:10;10.90;99.90
8979;DHT22;4524;51.364;5.448;2023-04-01T02:06:44;11.00;99.90
8979;DHT22;4524;51.364;5.448;2023-04-01T02:09:14;10.90;84.50
8979;DHT22;4524;51.364;5.448;2023-04-01T02:11:47;11.00;96.30
8979;DHT22;4524;51.364;5.448;2023-04-01T02:14:17;11.00;98.10
8979;DHT22;4524;51.364;5.448;2023-04-01T02:16:51;11.00;92.80
8979;DHT22;4524;51.364;5.448;2023-04-01T02:19:21;11.00;92.50
8979;DHT22;4524;51.364;5.448;2023-04-01T02:21:56;11.10;78.70
8979;DHT22;4524;51.364;5.448;2023-04-01T02:24:26;11.10;54.40
8979;DHT22;4524;51.364;5.448;2023-04-01T02:26:55;11.00;70.50
8979;DHT22;4524;51.364;5.448;2023-04-01T02:29:24;11.00;67.60
8979;DHT22;4524;51.364;5.448;2023-04-01T02:31:53;11.00;89.20
8979;DHT22;4524;51.364;5.448;2023-04-01T02:34:24;11.00;92.50
8979;DHT22;4524;51.364;5.448;2023-04-01T02:36:55;11.10;65.70
8979;DHT22;4524;51.364;5.448;2023-04-01T02:39:25;11.00;73.40
8979;DHT22;4524;51.364;5.448;2023-04-01T02:41:53;11.00;90.20
8979;DHT22;4524;51.364;5.448;2023-04-01T02:44:21;10.90;49.50
8979;DHT22;4524;51.364;5.448;2023-04-01T02:46:49;10.80;96.00
8979;DHT22;4524;51.364;5.448;2023-04-01T02:49:18;10.90;93.40
8979;DHT22;4524;51.364;5.448;2023-04-01T02:51:46;10.90;90.50
8979;DHT22;4524;51.364;5.448;2023-04-01T02:54:15;10.90;72.40
8979;DHT22;4524;51.364;5.448;2023-04-01T02:56:43;10.90;40.50
8979;DHT22;4524;51.364;5.448;2023-04-01T02:59:12;10.90;56.40
8979;DHT22;4524;51.364;5.448;2023-04-01T03:01:40;11.00;63.10
8979;DHT22;4524;51.364;5.448;2023-04-01T03:04:08;11.00;33.00
8979;DHT22;4524;51.364;5.448;2023-04-01T03:06:36;11.00;43.40
8979;DHT22;4524;51.364;5.448;2023-04-01T03:09:04;10.90;76.10
8979;DHT22;4524;51.364;5.448;2023-04-01T03:11:33;10.90;90.60
8979;DHT22;4524;51.364;5.448;2023-04-01T03:14:02;10.90;85.20
8979;DHT22;4524;51.364;5.448;2023-04-01T03:16:30;10.90;99.90
8979;DHT22;4524;51.364;5.448;2023-04-01T03:18:58;10.90;99.90
8979;DHT22;4524;51.364;5.448;2023-04-01T03:21:28;10.90;99.90
8979;DHT22;4524;51.364;5.448;2023-04-01T03:23:56;10.90;99.90
8979;DHT22;4524;51.364;5.448;2023-04-01T03:26:25;10.80;80.70
8979;DHT22;4524;51.364;5.448;2023-04-01T03:28:56;10.70;99.90
8979;DHT22;4524;51.364;5.448;2023-04-01T03:31:24;10.80;99.90
8979;DHT22;4524;51.364;5.448;2023-04-01T03:33:55;10.80;80.30
8979;DHT22;4524;51.364;5.448;2023-04-01T03:36:23;10.80;99.90
8979;DHT22;4524;51.364;5.448;2023-04-01T03:38:51;10.70;99.90
8979;DHT22;4524;51.364;5.448;2023-04-01T03:41:28;10.70;99.90
8979;DHT22;4524;51.364;5.448;2023-04-01T03:43:59;10.70;99.90
8979;DHT22;4524;51.364;5.448;2023-04-01T03:46:27;10.70;99.90
8979;DHT22;4524;51.364;5.448;2023-04-01T03:48:55;10.70;99.90
8979;DHT22;4524;51.364;5.448;2023-04-01T03:51:23;10.70;99.90
8979;DHT22;4524;51.364;5.448;2023-04-01T03:53:51;10.70;99.90
8979;DHT22;4524;51.364;5.448;2023-04-01T03:56:19;10.70;99.90
8979;DHT22;4524;51.364;5.448;2023-04-01T03:58:47;10.70;99.90
8979;DHT22;4524;51.364;5.448;2023-04-01T04:01:19;10.70;99.90
8979;DHT22;4524;51.364;5.448;2023-04-01T04:03:50;10.70;99.90
8979;DHT22;4524;51.364;5.448;2023-04-01T04:06:19;10.70;99.90
8979;DHT22;4524;51.364;5.448;2023-04-01T04:08:48;10.70;99.90
8979;DHT22;4524;51.364;5.448;2023-04-01T04:11:16;10.70;99.90
8979;DHT22;4524;51.364;5.448;2023-04-01T04:13:44;10.70;90.80
8979;DHT22;4524;51.364;5.448;2023-04-01T04:16:16;10.80;93.60
8979;DHT22;4524;51.364;5.448;2023-04-01T04:18:49;10.80;49.10
8979;DHT22;4524;51.364;5.448;2023-04-01T04:21:18;10.80;52.50
8979;DHT22;4524;51.364;5.448;2023-04-01T04:23:46;10.80;70.80
8979;DHT22;4524;51.364;5.448;2023-04-01T04:26:16;10.80;63.00
8979;DHT22;4524;51.364;5.448;2023-04-01T04:28:51;10.70;98.50
8979;DHT22;4524;51.364;5.448;2023-04-01T04:31:22;10.70;97.10
8979;DHT22;4524;51.364;5.448;2023-04-01T04:33:52;10.70;93.90
8979;DHT22;4524;51.364;5.448;2023-04-01T04:36:21;10.70;82.50
8979;DHT22;4524;51.364;5.448;2023-04-01T04:38:50;10.70;74.50
8979;DHT22;4524;51.364;5.448;2023-04-01T04:41:19;10.70;75.20
8979;DHT22;4524;51.364;5.448;2023-04-01T04:43:51;10.60;91.50
8979;DHT22;4524;51.364;5.448;2023-04-01T04:46:21;10.70;97.90
8979;DHT22;4524;51.364;5.448;2023-04-01T04:48:55;10.60;87.90
8979;DHT22;4524;51.364;5.448;2023-04-01T04:51:23;10.60;99.90
8979;DHT22;4524;51.364;5.448;2023-04-01T04:53:51;10.50;99.90
8979;DHT22;4524;51.364;5.448;2023-04-01T04:56:28;10.50;99.90
8979;DHT22;4524;51.364;5.448;2023-04-01T04:59:05;10.40;99.90
8979;DHT22;4524;51.364;5.448;2023-04-01T05:01:50;10.40;99.90
8979;DHT22;4524;51.364;5.448;2023-04-01T05:04:17;10.40;99.90
8979;DHT22;4524;51.364;5.448;2023-04-01T05:06:46;10.50;99.90
8979;DHT22;4524;51.364;5.448;2023-04-01T05:09:16;10.50;99.90
8979;DHT22;4524;51.364;5.448;2023-04-01T05:11:44;10.50;99.90
8979;DHT22;4524;51.364;5.448;2023-04-01T05:14:13;10.50;99.90
8979;DHT22;4524;51.364;5.448;2023-04-01T05:16:45;10.50;99.90
8979;DHT22;4524;51.364;5.448;2023-04-01T05:19:15;10.60;99.90
8979;DHT22;4524;51.364;5.448;2023-04-01T05:21:43;10.50;99.90
8979;DHT22;4524;51.364;5.448;2023-04-01T05:24:11;10.60;99.90
8979;DHT22;4524;51.364;5.448;2023-04-01T05:26:39;10.60;90.00
8979;DHT22;4524;51.364;5.448;2023-04-01T05:29:26;10.50;97.40
8979;DHT22;4524;51.364;5.448;2023-04-01T05:32:01;10.40;99.90
8979;DHT22;4524;51.364;5.448;2023-04-01T05:34:31;10.40;99.90
8979;DHT22;4524;51.364;5.448;2023-04-01T05:36:59;10.30;99.90
8979;DHT22;4524;51.364;5.448;2023-04-01T05:39:27;10.40;99.90
8979;DHT22;4524;51.364;5.448;2023-04-01T05:41:55;10.40;99.90
8979;DHT22;4524;51.364;5.448;2023-04-01T05:44:23;10.40;99.90
8979;DHT22;4524;51.364;5.448;2023-04-01T05:47:14;10.50;99.90
8979;DHT22;4524;51.364;5.448;2023-04-01T05:49:43;10.40;99.90
8979;DHT22;4524;51.364;5.448;2023-04-01T05:52:11;10.50;99.90
8979;DHT22;4524;51.364;5.448;2023-04-01T05:54:39;10.40;99.90
8979;DHT22;4524;51.364;5.448;2023-04-01T05:57:07;10.40;99.90
8979;DHT22;4524;51.364;5.448;2023-04-01T05:59:35;10.50;99.90
8979;DHT22;4524;51.364;5.448;2023-04-01T06:02:03;10.50;99.90
8979;DHT22;4524;51.364;5.448;2023-04-01T06:04:36;10.50;99.90
8979;DHT22;4524;51.364;5.448;2023-04-01T06:07:13;10.50;99.90
8979;DHT22;4524;51.364;5.448;2023-04-01T06:09:42;10.50;99.90
8979;DHT22;4524;51.364;5.448;2023-04-01T06:12:28;10.50;97.80
8979;DHT22;4524;51.364;5.448;2023-04-01T06:15:06;10.50;99.90
8979;DHT22;4524;51.364;5.448;2023-04-01T06:17:55;10.50;96.40
8979;DHT22;4524;51.364;5.448;2023-04-01T06:20:37;10.50;99.90
8979;DHT22;4524;51.364;5.448;2023-04-01T06:23:29;10.50;96.20
8979;DHT22;4524;51.364;5.448;2023-04-01T06:26:23;10.50;99.90
8979;DHT22;4524;51.364;5.448;2023-04-01T06:29:04;10.50;99.90
8979;DHT22;4524;51.364;5.448;2023-04-01T06:35:07;10.70;99.60
8979;DHT22;4524;51.364;5.448;2023-04-01T06:44:13;10.50;99.90
8979;DHT22;4524;51.364;5.448;2023-04-01T06:47:07;10.60;99.90
8979;DHT22;4524;51.364;5.448;2023-04-01T06:50:03;10.70;99.90
8979;DHT22;4524;51.364;5.448;2023-04-01T06:52:58;10.70;99.90
8979;DHT22;4524;51.364;5.448;2023-04-01T06:55:50;10.60;99.90
8979;DHT22;4524;51.364;5.448;2023-04-01T06:58:35;10.70;99.90
8979;DHT22;4524;51.364;5.448;2023-04-01T07:01:07;10.70;99.90
8979;DHT22;4524;51.364;5.448;2023-04-01T07:03:39;10.70;99.90
8979;DHT22;4524;51.364;5.448;2023-04-01T07:06:12;10.60;78.60
8979;DHT22;4524;51.364;5.448;2023-04-01T07:08:51;10.70;93.10
8979;DHT22;4524;51.364;5.448;2023-04-01T07:11:25;10.80;96.80
8979;DHT22;4524;51.364;5.448;2023-04-01T07:14:22;10.90;88.50
8979;DHT22;4524;51.364;5.448;2023-04-01T07:16:54;10.80;82.60
8979;DHT22;4524;51.364;5.448;2023-04-01T07:19:27;10.80;45.00
8979;DHT22;4524;51.364;5.448;2023-04-01T07:22:05;10.90;47.90
8979;DHT22;4524;51.364;5.448;2023-04-01T07:24:54;10.90;49.10
8979;DHT22;4524;51.364;5.448;2023-04-01T07:27:24;11.00;66.60
8979;DHT22;4524;51.364;5.448;2023-04-01T07:29:55;11.00;56.20
8979;DHT22;4524;51.364;5.448;2023-04-01T07:32:31;11.00;35.90
8979;DHT22;4524;51.364;5.448;2023-04-01T07:35:09;11.00;71.90
8979;DHT22;4524;51.364;5.448;2023-04-01T07:37:47;11.00;65.40
8979;DHT22;4524;51.364;5.448;2023-04-01T07:40:26;11.00;88.60
8979;DHT22;4524;51.364;5.448;2023-04-01T07:43:08;10.90;52.80
8979;DHT22;4524;51.364;5.448;2023-04-01T07:45:51;11.00;95.40
8979;DHT22;4524;51.364;5.448;2023-04-01T07:48:27;10.90;95.10
8979;DHT22;4524;51.364;5.448;2023-04-01T07:51:03;10.90;92.60
8979;DHT22;4524;51.364;5.448;2023-04-01T07:53:40;11.10;92.80
8979;DHT22;4524;51.364;5.448;2023-04-01T07:56:15;11.20;74.50
8979;DHT22;4524;51.364;5.448;2023-04-01T07:58:52;11.30;25.40
8979;DHT22;4524;51.364;5.448;2023-04-01T08:01:49;11.40;1.00
8979;DHT22;4524;51.364;5.448;2023-04-01T08:04:27;11.50;1.00
8979;DHT22;4524;51.364;5.448;2023-04-01T08:07:06;11.60;1.00
8979;DHT22;4524;51.364;5.448;2023-04-01T08:09:44;11.70;1.00
8979;DHT22;4524;51.364;5.448;2023-04-01T08:12:45;11.80;1.00
8979;DHT22;4524;51.364;5.448;2023-04-01T08:15:38;12.00;1.00
8979;DHT22;4524;51.364;5.448;2023-04-01T08:18:22;12.20;1.00
8979;DHT22;4524;51.364;5.448;2023-04-01T08:20:57;12.20;1.00
8979;DHT22;4524;51.364;5.448;2023-04-01T08:23:27;12.10;1.00
8979;DHT22;4524;51.364;5.448;2023-04-01T08:26:00;12.10;1.00
8979;DHT22;4524;51.364;5.448;2023-04-01T08:28:37;12.10;1.00
8979;DHT22;4524;51.364;5.448;2023-04-01T08:31:13;12.10;1.00
8979;DHT22;4524;51.364;5.448;2023-04-01T08:33:46;12.00;1.00
8979;DHT22;4524;51.364;5.448;2023-04-01T08:36:18;12.00;1.00
8979;DHT22;4524;51.364;5.448;2023-04-01T08:38:59;12.00;1.00
8979;DHT22;4524;51.364;5.448;2023-04-01T08:45:16;12.20;1.00
8979;DHT22;4524;51.364;5.448;2023-04-01T08:48:19;12.30;1.00
8979;DHT22;4524;51.364;5.448;2023-04-01T08:51:24;12.50;1.00
8979;DHT22;4524;51.364;5.448;2023-04-01T08:54:08;12.60;1.00
8979;DHT22;4524;51.364;5.448;2023-04-01T08:56:50;12.80;1.00
8979;DHT22;4524;51.364;5.448;2023-04-01T08:59:48;12.90;99.90
8979;DHT22;4524;51.364;5.448;2023-04-01T09:02:51;13.00;99.90
8979;DHT22;4524;51.364;5.448;2023-04-01T09:05:47;13.20;99.90
8979;DHT22;4524;51.364;5.448;2023-04-01T09:08:36;13.10;99.90
8979;DHT22;4524;51.364;5.448;2023-04-01T09:11:10;12.90;99.90
8979;DHT22;4524;51.364;5.448;2023-04-01T09:14:26;12.80;99.90
8979;DHT22;4524;51.364;5.448;2023-04-01T09:17:43;12.70;1.00
8979;DHT22;4524;51.364;5.448;2023-04-01T09:20:29;12.50;99.90
8979;DHT22;4524;51.364;5.448;2023-04-01T09:23:15;12.60;1.00
8979;DHT22;4524;51.364;5.448;2023-04-01T09:25:58;12.60;99.90
8979;DHT22;4524;51.364;5.448;2023-04-01T09:28:38;12.50;1.00
8979;DHT22;4524;51.364;5.448;2023-04-01T09:31:32;12.50;1.00
8979;DHT22;4524;51.364;5.448;2023-04-01T09:34:51;12.40;1.00
8979;DHT22;4524;51.364;5.448;2023-04-01T09:37:34;12.30;1.00
8979;DHT22;4524;51.364;5.448;2023-04-01T09:40:16;12.20;1.00
8979;DHT22;4524;51.364;5.448;2023-04-01T09:43:24;12.10;1.00
8979;DHT22;4524;51.364;5.448;2023-04-01T09:46:09;12.10;1.00
8979;DHT22;4524;51.364;5.448;2023-04-01T09:48:46;11.90;1.00
8979;DHT22;4524;51.364;5.448;2023-04-01T09:51:30;12.10;1.00
8979;DHT22;4524;51.364;5.448;2023-04-01T09:54:08;12.10;1.00
8979;DHT22;4524;51.364;5.448;2023-04-01T09:56:58;12.20;1.00
8979;DHT22;4524;51.364;5.448;2023-04-01T10:06:17;11.90;1.00
8979;DHT22;4524;51.364;5.448;2023-04-01T10:09:21;11.60;1.00
8979;DHT22;4524;51.364;5.448;2023-04-01T10:18:18;11.80;1.00
8979;DHT22;4524;51.364;5.448;2023-04-01T10:21:00;11.80;1.00
8979;DHT22;4524;51.364;5.448;2023-04-01T10:24:00;12.00;1.00
8979;DHT22;4524;51.364;5.448;2023-04-01T10:27:06;12.10;1.00
8979;DHT22;4524;51.364;5.448;2023-04-01T10:36:47;12.00;1.00
8979;DHT22;4524;51.364;5.448;2023-04-01T10:39:34;12.00;1.00
8979;DHT22;4524;51.364;5.448;2023-04-01T10:42:41;11.90;1.00
8979;DHT22;4524;51.364;5.448;2023-04-01T10:46:04;11.80;1.00
8979;DHT22;4524;51.364;5.448;2023-04-01T10:49:17;11.90;1.00
8979;DHT22;4524;51.364;5.448;2023-04-01T10:52:12;12.20;1.00
8979;DHT22;4524;51.364;5.448;2023-04-01T10:55:31;12.40;1.00
8979;DHT22;4524;51.364;5.448;2023-04-01T10:59:05;12.40;1.00
8979;DHT22;4524;51.364;5.448;2023-04-01T11:11:47;12.40;99.90
8979;DHT22;4524;51.364;5.448;2023-04-01T11:15:11;12.60;1.00
8979;DHT22;4524;51.364;5.448;2023-04-01T11:24:48;12.50;99.90
8979;DHT22;4524;51.364;5.448;2023-04-01T11:27:49;12.60;99.90
8979;DHT22;4524;51.364;5.448;2023-04-01T11:30:25;12.80;1.00
8979;DHT22;4524;51.364;5.448;2023-04-01T11:33:02;12.80;99.90
8979;DHT22;4524;51.364;5.448;2023-04-01T11:36:02;12.80;99.90
8979;DHT22;4524;51.364;5.448;2023-04-01T11:38:57;12.80;99.90
8979;DHT22;4524;51.364;5.448;2023-04-01T11:41:52;12.60;99.90
8979;DHT22;4524;51.364;5.448;2023-04-01T11:44:48;12.50;99.90
8979;DHT22;4524;51.364;5.448;2023-04-01T11:47:55;12.50;99.90
8979;DHT22;4524;51.364;5.448;2023-04-01T11:50:39;12.40;99.90
8979;DHT22;4524;51.364;5.448;2023-04-01T11:53:23;12.40;99.90
8979;DHT22;4524;51.364;5.448;2023-04-01T11:56:02;12.30;1.00
8979;DHT22;4524;51.364;5.448;2023-04-01T12:01:41;12.20;1.00
8979;DHT22;4524;51.364;5.448;2023-04-01T12:04:36;12.20;1.00
8979;DHT22;4524;51.364;5.448;2023-04-01T12:07:15;12.20;1.00
8979;DHT22;4524;51.364;5.448;2023-04-01T12:09:52;12.10;1.00
8979;DHT22;4524;51.364;5.448;2023-04-01T12:12:32;12.30;1.00
8979;DHT22;4524;51.364;5.448;2023-04-01T12:15:19;12.30;1.00
8979;DHT22;4524;51.364;5.448;2023-04-01T12:17:53;12.40;1.00
8979;DHT22;4524;51.364;5.448;2023-04-01T12:20:38;12.40;1.00
8979;DHT22;4524;51.364;5.448;2023-04-01T12:26:13;12.50;99.90
8979;DHT22;4524;51.364;5.448;2023-04-01T12:28:55;12.30;99.90
8979;DHT22;4524;51.364;5.448;2023-04-01T12:31:31;12.30;99.90
8979;DHT22;4524;51.364;5.448;2023-04-01T12:34:32;12.30;99.90
8979;DHT22;4524;51.364;5.448;2023-04-01T12:37:08;12.30;99.90
8979;DHT22;4524;51.364;5.448;2023-04-01T12:39:51;12.30;1.00
8979;DHT22;4524;51.364;5.448;2023-04-01T12:42:44;12.50;1.00
8979;DHT22;4524;51.364;5.448;2023-04-01T12:45:28;12.60;99.90
8979;DHT22;4524;51.364;5.448;2023-04-01T12:48:14;12.60;1.00
8979;DHT22;4524;51.364;5.448;2023-04-01T12:50:57;12.50;1.00
8979;DHT22;4524;51.364;5.448;2023-04-01T12:53:41;12.40;1.00
8979;DHT22;4524;51.364;5.448;2023-04-01T12:56:17;12.40;1.00
8979;DHT22;4524;51.364;5.448;2023-04-01T13:02:00;12.70;1.00
8979;DHT22;4524;51.364;5.448;2023-04-01T13:04:51;12.60;1.00
8979;DHT22;4524;51.364;5.448;2023-04-01T13:07:41;12.60;1.00
8979;DHT22;4524;51.364;5.448;2023-04-01T13:10:27;12.60;1.00
8979;DHT22;4524;51.364;5.448;2023-04-01T13:15:46;12.40;1.00
8979;DHT22;4524;51.364;5.448;2023-04-01T13:18:28;12.50;1.00
8979;DHT22;4524;51.364;5.448;2023-04-01T13:21:06;12.50;1.00
8979;DHT22;4524;51.364;5.448;2023-04-01T13:23:47;12.50;1.00
8979;DHT22;4524;51.364;5.448;2023-04-01T13:26:24;12.50;1.00
8979;DHT22;4524;51.364;5.448;2023-04-01T13:28:58;12.70;1.00
8979;DHT22;4524;51.364;5.448;2023-04-01T13:31:38;12.80;1.00
8979;DHT22;4524;51.364;5.448;2023-04-01T13:34:22;12.60;1.00
8979;DHT22;4524;51.364;5.448;2023-04-01T13:37:01;12.50;1.00
8979;DHT22;4524;51.364;5.448;2023-04-01T13:39:44;12.40;1.00
8979;DHT22;4524;51.364;5.448;2023-04-01T13:42:18;12.40;1.00
8979;DHT22;4524;51.364;5.448;2023-04-01T13:44:53;12.40;1.00
8979;DHT22;4524;51.364;5.448;2023-04-01T13:47:41;12.40;1.00
8979;DHT22;4524;51.364;5.448;2023-04-01T13:56:16;12.40;1.00
8979;DHT22;4524;51.364;5.448;2023-04-01T13:59:03;12.30;1.00
8979;DHT22;4524;51.364;5.448;2023-04-01T14:01:40;12.40;1.00
8979;DHT22;4524;51.364;5.448;2023-04-01T14:07:26;12.30;1.00
8979;DHT22;4524;51.364;5.448;2023-04-01T14:10:07;12.30;1.00
8979;DHT22;4524;51.364;5.448;2023-04-01T14:12:42;12.20;1.00
8979;DHT22;4524;51.364;5.448;2023-04-01T14:15:25;12.30;1.00
8979;DHT22;4524;51.364;5.448;2023-04-01T14:21:00;12.20;1.00
8979;DHT22;4524;51.364;5.448;2023-04-01T14:23:45;12.20;1.00
8979;DHT22;4524;51.364;5.448;2023-04-01T14:26:26;12.30;1.00
8979;DHT22;4524;51.364;5.448;2023-04-01T14:29:11;12.30;1.00
8979;DHT22;4524;51.364;5.448;2023-04-01T14:31:48;12.30;1.00
8979;DHT22;4524;51.364;5.448;2023-04-01T14:34:26;12.20;1.00
8979;DHT22;4524;51.364;5.448;2023-04-01T14:37:08;12.20;1.00
8979;DHT22;4524;51.364;5.448;2023-04-01T14:42:45;12.20;1.00
8979;DHT22;4524;51.364;5.448;2023-04-01T14:48:23;12.30;1.00
8979;DHT22;4524;51.364;5.448;2023-04-01T14:50:55;12.30;1.00
8979;DHT22;4524;51.364;5.448;2023-04-01T14:53:28;12.20;1.00
8979;DHT22;4524;51.364;5.448;2023-04-01T14:55:58;12.20;1.00
8979;DHT22;4524;51.364;5.448;2023-04-01T14:58:40;12.10;1.00
8979;DHT22;4524;51.364;5.448;2023-04-01T15:01:23;12.10;1.00
8979;DHT22;4524;51.364;5.448;2023-04-01T15:03:58;12.00;1.00
8979;DHT22;4524;51.364;5.448;2023-04-01T15:07:05;12.10;1.00
8979;DHT22;4524;51.364;5.448;2023-04-01T15:09:43;12.00;1.00
8979;DHT22;4524;51.364;5.448;2023-04-01T15:12:21;12.10;1.00
8979;DHT22;4524;51.364;5.448;2023-04-01T15:15:04;12.10;1.00
8979;DHT22;4524;51.364;5.448;2023-04-01T15:17:48;12.00;1.00
8979;DHT22;4524;51.364;5.448;2023-04-01T15:20:34;11.80;55.70
8979;DHT22;4524;51.364;5.448;2023-04-01T15:23:20;11.80;99.90
8979;DHT22;4524;51.364;5.448;2023-04-01T15:26:08;11.80;99.90
8979;DHT22;4524;51.364;5.448;2023-04-01T15:28:45;11.80;46.10
8979;DHT22;4524;51.364;5.448;2023-04-01T15:31:17;11.80;90.50
8979;DHT22;4524;51.364;5.448;2023-04-01T15:34:01;11.80;99.90
8979;DHT22;4524;51.364;5.448;2023-04-01T15:36:38;11.90;74.70
8979;DHT22;4524;51.364;5.448;2023-04-01T15:39:14;11.90;97.40
8979;DHT22;4524;51.364;5.448;2023-04-01T15:41:56;12.00;1.00
8979;DHT22;4524;51.364;5.448;2023-04-01T15:44:52;11.90;1.00
8979;DHT22;4524;51.364;5.448;2023-04-01T15:47:33;11.80;1.00
8979;DHT22;4524;51.364;5.448;2023-04-01T15:53:12;11.90;1.00
8979;DHT22;4524;51.364;5.448;2023-04-01T15:55:50;11.80;7.60
8979;DHT22;4524;51.364;5.448;2023-04-01T15:58:38;11.90;1.00
8979;DHT22;4524;51.364;5.448;2023-04-01T16:01:19;11.80;1.00
8979;DHT22;4524;51.364;5.448;2023-04-01T16:03:55;11.80;1.00
8979;DHT22;4524;51.364;5.448;2023-04-01T16:09:35;11.70;1.00
8979;DHT22;4524;51.364;5.448;2023-04-01T16:12:15;11.60;7.80
8979;DHT22;4524;51.364;5.448;2023-04-01T16:14:52;11.80;18.60
8979;DHT22;4524;51.364;5.448;2023-04-01T16:17:36;11.70;1.00
8979;DHT22;4524;51.364;5.448;2023-04-01T16:20:18;11.70;39.50
8979;DHT22;4524;51.364;5.448;2023-04-01T16:22:55;11.70;21.40
8979;DHT22;4524;51.364;5.448;2023-04-01T16:25:31;11.60;17.70
8979;DHT22;4524;51.364;5.448;2023-04-01T16:28:16;11.60;14.60
8979;DHT22;4524;51.364;5.448;2023-04-01T16:31:06;11.60;14.70
8979;DHT22;4524;51.364;5.448;2023-04-01T16:33:44;11.60;1.00
8979;DHT22;4524;51.364;5.448;2023-04-01T16:36:24;11.60;6.70
8979;DHT22;4524;51.364;5.448;2023-04-01T16:39:13;11.50;4.90
8979;DHT22;4524;51.364;5.448;2023-04-01T16:41:48;11.60;1.00
8979;DHT22;4524;51.364;5.448;2023-04-01T16:44:19;11.60;1.00
8979;DHT22;4524;51.364;5.448;2023-04-01T16:46:51;11.60;1.00
8979;DHT22;4524;51.364;5.448;2023-04-01T16:49:31;11.60;1.00
8979;DHT22;4524;51.364;5.448;2023-04-01T16:52:15;11.60;1.00
8979;DHT22;4524;51.364;5.448;2023-04-01T16:54:50;11.60;1.00
8979;DHT22;4524;51.364;5.448;2023-04-01T16:57:23;11.50;48.30
8979;DHT22;4524;51.364;5.448;2023-04-01T16:59:56;11.50;68.40
8979;DHT22;4524;51.364;5.448;2023-04-01T17:02:30;11.50;83.10
8979;DHT22;4524;51.364;5.448;2023-04-01T17:05:02;11.50;32.10
8979;DHT22;4524;51.364;5.448;2023-04-01T17:07:40;11.50;20.10
8979;DHT22;4524;51.364;5.448;2023-04-01T17:10:25;11.50;19.90
8979;DHT22;4524;51.364;5.448;2023-04-01T17:13:13;11.50;28.10
8979;DHT22;4524;51.364;5.448;2023-04-01T17:15:50;11.50;43.90
8979;DHT22;4524;51.364;5.448;2023-04-01T17:18:26;11.40;17.90
8979;DHT22;4524;51.364;5.448;2023-04-01T17:20:59;11.50;21.00
8979;DHT22;4524;51.364;5.448;2023-04-01T17:23:34;11.50;7.00
8979;DHT22;4524;51.364;5.448;2023-04-01T17:26:17;11.40;29.20
8979;DHT22;4524;51.364;5.448;2023-04-01T17:28:50;11.40;20.70
8979;DHT22;4524;51.364;5.448;2023-04-01T17:31:37;11.40;71.50
8979;DHT22;4524;51.364;5.448;2023-04-01T17:37:15;11.40;99.90
8979;DHT22;4524;51.364;5.448;2023-04-01T17:39:54;11.40;99.90
8979;DHT22;4524;51.364;5.448;2023-04-01T17:42:34;11.40;99.90
8979;DHT22;4524;51.364;5.448;2023-04-01T17:45:11;11.40;99.40
8979;DHT22;4524;51.364;5.448;2023-04-01T17:48:01;11.40;97.00
8979;DHT22;4524;51.364;5.448;2023-04-01T17:50:44;11.30;99.90
8979;DHT22;4524;51.364;5.448;2023-04-01T17:53:23;11.20;99.90
8979;DHT22;4524;51.364;5.448;2023-04-01T17:56:14;11.10;99.90
8979;DHT22;4524;51.364;5.448;2023-04-01T17:58:53;11.00;99.90
8979;DHT22;4524;51.364;5.448;2023-04-01T18:01:34;11.00;1.00
8979;DHT22;4524;51.364;5.448;2023-04-01T18:04:15;11.00;1.00
8979;DHT22;4524;51.364;5.448;2023-04-01T18:06:54;11.00;1.00
8979;DHT22;4524;51.364;5.448;2023-04-01T18:09:33;11.10;1.00
8979;DHT22;4524;51.364;5.448;2023-04-01T18:12:12;11.10;1.00
8979;DHT22;4524;51.364;5.448;2023-04-01T18:17:50;11.20;99.90
8979;DHT22;4524;51.364;5.448;2023-04-01T18:20:33;11.20;99.90
8979;DHT22;4524;51.364;5.448;2023-04-01T18:23:11;11.10;99.90
8979;DHT22;4524;51.364;5.448;2023-04-01T18:25:44;11.00;1.00
8979;DHT22;4524;51.364;5.448;2023-04-01T18:28:19;11.10;1.00
8979;DHT22;4524;51.364;5.448;2023-04-01T18:30:54;11.10;1.00
8979;DHT22;4524;51.364;5.448;2023-04-01T18:33:29;11.10;1.00
8979;DHT22;4524;51.364;5.448;2023-04-01T18:36:07;11.10;1.00
8979;DHT22;4524;51.364;5.448;2023-04-01T18:38:39;11.10;1.00
8979;DHT22;4524;51.364;5.448;2023-04-01T18:41:13;11.20;99.90
8979;DHT22;4524;51.364;5.448;2023-04-01T18:43:51;11.20;99.90
8979;DHT22;4524;51.364;5.448;2023-04-01T18:46:30;11.30;99.90
8979;DHT22;4524;51.364;5.448;2023-04-01T18:49:06;11.30;99.90
8979;DHT22;4524;51.364;5.448;2023-04-01T18:51:39;11.30;99.90
8979;DHT22;4524;51.364;5.448;2023-04-01T18:54:19;11.30;99.90